Time;durP1;ratioP1;P1;durP2;ratioP2;P2;SDS_P1;SDS_P2;PMS_P1;PMS_P2;Temp;Humidity;BMP_temperature;BMP_pressure;BME280_temperature;BME280_humidity;BME280_pressure;Samples;Min_cycle;Max_cycle;Signal;HPM_P1;HPM_P2
2020/12/16 00:01:41;;;;;;;26.77;16.13;;;;;;;7.83;100.00;100308.42;634445;223;24821;-73
2020/12/16 00:04:14;;;;;;;33.47;16.30;;;;;;;7.90;100.00;100310.05;639898;223;24808;-73
2020/12/16 00:06:46;;;;;;;28.53;13.17;;;;;;;7.87;100.00;100312.87;641569;223;24856;-72
2020/12/16 00:09:18;;;;;;;72.43;17.30;;;;;;;7.93;100.00;100316.27;649991;220;24752;-74
2020/12/16 00:11:52;;;;;;;27.60;14.93;;;;;;;7.95;100.00;100310.02;641436;223;24917;-74
2020/12/16 00:14:24;;;;;;;28.47;16.40;;;;;;;7.95;100.00;100314.38;641425;223;24864;-74
2020/12/16 00:16:56;;;;;;;92.55;22.85;;;;;;;8.65;100.00;100304.63;632736;223;43508;-74
2020/12/16 00:19:29;;;;;;;47.27;18.70;;;;;;;8.22;100.00;100319.05;641795;223;23822;-74
2020/12/16 00:22:03;;;;;;;70.95;22.02;;;;;;;8.84;100.00;100318.13;646532;216;32581;-74
2020/12/16 00:24:33;;;;;;;97.43;22.10;;;;;;;8.56;100.00;100325.66;647900;218;23710;-74
2020/12/16 00:27:05;;;;;;;193.10;23.23;;;;;;;8.57;100.00;100334.25;646301;218;24775;-74
2020/12/16 00:29:36;;;;;;;344.27;26.77;;;;;;;8.81;100.00;100332.19;657345;218;24808;-74
2020/12/16 00:32:08;;;;;;;373.83;26.50;;;;;;;8.85;100.00;100332.26;651237;218;24772;-74
2020/12/16 00:34:40;;;;;;;276.27;24.80;;;;;;;8.77;100.00;100332.11;651203;218;24145;-74
2020/12/16 00:37:16;;;;;;;416.98;34.48;;;;;;;9.22;100.00;100331.22;650274;218;32638;-74
2020/12/16 00:39:48;;;;;;;443.35;37.60;;;;;;;9.28;100.00;100325.95;644239;218;32676;-74
2020/12/16 00:42:18;;;;;;;314.53;26.57;;;;;;;8.82;100.00;100329.11;652647;218;23702;-74
2020/12/16 00:44:49;;;;;;;492.70;34.80;;;;;;;9.06;100.00;100330.91;646023;218;32548;-72
2020/12/16 00:47:20;;;;;;;351.57;26.80;;;;;;;8.75;100.00;100331.90;656353;219;23694;-74
2020/12/16 00:49:51;;;;;;;259.47;24.83;;;;;;;8.72;100.00;100338.63;645299;222;24609;-74
2020/12/16 00:52:28;;;;;;;364.17;23.90;;;;;;;8.79;100.00;100327.61;641520;221;24791;-74
2020/12/16 00:55:05;;;;;;;438.57;27.20;;;;;;;8.82;100.00;100335.13;654526;218;24808;-74
2020/12/16 00:57:37;;;;;;;76.87;16.20;;;;;;;8.70;100.00;100343.94;652177;219;24828;-74
2020/12/16 01:00:10;;;;;;;331.20;29.05;;;;;;;9.15;100.00;100344.88;646916;218;32610;-74
2020/12/16 01:02:41;;;;;;;224.03;21.10;;;;;;;8.78;100.00;100351.91;641056;222;23801;-74
2020/12/16 01:05:11;;;;;;;445.45;31.87;;;;;;;9.22;100.00;100345.97;652083;217;32600;-73
2020/12/16 01:07:43;;;;;;;468.10;29.73;;;;;;;9.07;100.00;100339.52;638704;222;26892;-74
2020/12/16 01:10:13;;;;;;;357.47;26.50;;;;;;;9.00;100.00;100339.68;651043;218;25951;-74
2020/12/16 01:12:45;;;;;;;300.17;23.53;;;;;;;8.90;100.00;100342.27;641716;223;24815;-73
2020/12/16 01:15:16;;;;;;;293.40;26.57;;;;;;;9.12;100.00;100342.04;636052;221;32755;-73
2020/12/16 01:17:48;;;;;;;408.13;31.27;;;;;;;9.40;100.00;100349.55;634011;221;32768;-72
2020/12/16 01:20:21;;;;;;;431.07;31.17;;;;;;;9.55;100.00;100342.19;633731;221;32750;-74
2020/12/16 01:22:51;;;;;;;355.87;25.17;;;;;;;9.11;100.00;100349.96;637628;223;24848;-73
2020/12/16 01:25:24;;;;;;;60.43;14.50;;;;;;;8.90;100.00;100352.16;640967;222;25110;-74
2020/12/16 01:27:54;;;;;;;94.35;17.42;;;;;;;9.35;100.00;100356.11;646863;218;32629;-74
2020/12/16 01:30:26;;;;;;;161.90;15.90;;;;;;;8.87;100.00;100361.98;653476;219;23682;-74
2020/12/16 01:32:57;;;;;;;178.57;17.00;;;;;;;8.83;100.00;100361.88;658265;216;24997;-74
2020/12/16 01:35:28;;;;;;;33.60;11.10;;;;;;;8.69;100.00;100364.81;642524;222;24854;-74
2020/12/16 01:37:58;;;;;;;103.15;13.93;;;;;;;9.25;100.00;100366.45;645190;220;32860;-74
2020/12/16 01:40:28;;;;;;;56.80;10.10;;;;;;;8.71;100.00;100374.58;656921;218;23679;-73
2020/12/16 01:42:59;;;;;;;201.40;15.60;;;;;;;8.55;100.00;100377.63;640423;223;24813;-74
2020/12/16 01:45:30;;;;;;;106.97;12.90;;;;;;;8.29;100.00;100382.34;639268;223;24824;-74
2020/12/16 01:48:01;;;;;;;116.43;13.60;;;;;;;8.12;100.00;100374.67;641108;223;23825;-73
2020/12/16 01:50:30;;;;;;;33.43;10.43;;;;;;;8.12;100.00;100366.08;644998;223;24785;-74
2020/12/16 01:55:43;;;;;;;80.50;12.67;;;;;;;7.82;100.00;100375.86;654853;217;25385;-74
2020/12/16 01:58:14;;;;;;;79.73;13.70;;;;;;;7.64;100.00;100388.05;655506;216;29031;-74
2020/12/16 02:00:46;;;;;;;71.15;15.20;;;;;;;8.07;100.00;100385.89;651711;217;32643;-74
2020/12/16 02:03:17;;;;;;;117.43;17.23;;;;;;;8.45;100.00;100376.78;653575;216;34664;-74
2020/12/16 02:05:48;;;;;;;101.18;17.02;;;;;;;8.41;100.00;100377.96;651798;217;32668;-74
2020/12/16 02:08:21;;;;;;;23.90;12.37;;;;;;;7.85;100.00;100379.02;651131;217;23636;-73
2020/12/16 02:10:52;;;;;;;105.63;13.57;;;;;;;7.69;100.00;100382.02;650998;217;24758;-74
2020/12/16 02:13:21;;;;;;;67.25;15.10;;;;;;;8.29;100.00;100386.23;631013;225;32904;-73
2020/12/16 02:15:53;;;;;;;28.10;11.10;;;;;;;8.00;100.00;100384.25;626598;225;23747;-73
2020/12/16 02:18:26;;;;;;;17.13;9.27;;;;;;;7.83;100.00;100388.69;643206;221;25079;-74
2020/12/16 02:20:55;;;;;;;30.80;11.63;;;;;;;7.63;100.00;100390.29;630779;225;24828;-73
2020/12/16 02:23:25;;;;;;;118.23;13.77;;;;;;;7.63;100.00;100389.00;656042;217;24812;-73
2020/12/16 02:25:56;;;;;;;73.57;15.25;;;;;;;8.02;100.00;100385.42;648065;220;32572;-74
2020/12/16 02:28:28;;;;;;;71.50;12.70;;;;;;;7.68;100.00;100397.68;657212;217;23696;-74
2020/12/16 02:31:04;;;;;;;110.50;14.95;;;;;;;7.98;100.00;100393.09;648176;216;32552;-74
2020/12/16 02:33:39;;;;;;;45.60;10.93;;;;;;;7.70;100.00;100394.48;657026;216;23729;-74
2020/12/16 02:36:10;;;;;;;40.38;12.23;;;;;;;7.95;100.00;100388.17;645022;216;32602;-73
2020/12/16 02:38:48;;;;;;;102.70;13.25;;;;;;;8.12;100.00;100386.33;649913;217;32936;-74
2020/12/16 02:41:21;;;;;;;45.30;11.87;;;;;;;8.21;100.00;100384.77;626844;225;32911;-74
2020/12/16 02:46:31;;;;;;;61.90;10.37;;;;;;;7.65;100.00;100390.16;651257;209;25394;-73
2020/12/16 02:49:02;;;;;;;34.87;9.47;;;;;;;7.54;100.00;100384.53;649812;220;24732;-73
2020/12/16 02:51:36;;;;;;;18.13;8.30;;;;;;;7.56;100.00;100386.53;626807;225;24818;-74
2020/12/16 02:54:09;;;;;;;37.03;8.53;;;;;;;7.63;100.00;100385.59;625273;229;24886;-73
2020/12/16 02:56:36;;;;;;;35.77;9.83;;;;;;;7.60;100.00;100379.33;637417;224;25080;-73
2020/12/16 02:59:08;;;;;;;34.43;9.77;;;;;;;7.57;100.00;100370.53;639393;224;24821;-74
2020/12/16 03:01:40;;;;;;;55.10;10.13;;;;;;;7.53;100.00;100380.31;639052;221;24867;-73
2020/12/16 03:04:14;;;;;;;70.50;13.08;;;;;;;7.92;100.00;100369.83;634783;224;32848;-73
2020/12/16 03:06:48;;;;;;;75.40;11.07;;;;;;;7.73;100.00;100369.17;641299;224;23822;-73
2020/12/16 03:09:20;;;;;;;49.33;11.53;;;;;;;7.70;100.00;100365.55;621062;229;24804;-73
2020/12/16 03:14:38;;;;;;;33.10;10.40;;;;;;;7.69;100.00;100361.31;651310;217;27632;-75
2020/12/16 03:19:51;;;;;;;36.67;9.33;;;;;;;7.57;100.00;100358.41;649203;217;25523;-74
2020/12/16 03:22:22;;;;;;;60.37;11.60;;;;;;;7.59;100.00;100367.34;632585;227;24872;-74
2020/12/16 03:24:53;;;;;;;33.13;10.37;;;;;;;7.58;100.00;100362.64;625455;229;24833;-73
2020/12/16 03:27:24;;;;;;;32.43;10.03;;;;;;;7.57;100.00;100366.17;625630;229;24803;-75
2020/12/16 03:29:54;;;;;;;73.50;11.63;;;;;;;7.60;100.00;100364.66;628626;225;27030;-75
2020/12/16 03:32:27;;;;;;;68.60;13.33;;;;;;;7.61;100.00;100365.00;628220;228;24894;-74
2020/12/16 03:35:02;;;;;;;110.83;15.32;;;;;;;7.95;100.00;100364.39;621854;227;32988;-73
2020/12/16 03:37:32;;;;;;;35.33;12.30;;;;;;;7.66;100.00;100374.50;629260;224;23702;-74
2020/12/16 03:40:05;;;;;;;68.87;11.30;;;;;;;7.53;100.00;100376.42;629025;225;24846;-73
2020/12/16 03:42:37;;;;;;;109.03;12.40;;;;;;;7.50;100.00;100383.14;627540;226;24905;-72
2020/12/16 03:45:11;;;;;;;113.90;14.60;;;;;;;8.01;100.00;100376.01;613194;229;33131;-74
2020/12/16 03:47:41;;;;;;;94.17;12.67;;;;;;;7.78;100.00;100375.77;626508;229;24839;-74
2020/12/16 03:50:12;;;;;;;60.57;10.77;;;;;;;7.58;100.00;100375.58;625957;226;24831;-74
2020/12/16 03:52:44;;;;;;;45.30;10.50;;;;;;;7.64;100.00;100374.28;639854;223;25113;-74
2020/12/16 03:55:14;;;;;;;75.10;12.40;;;;;;;7.84;100.00;100368.80;632483;224;32834;-74
2020/12/16 03:57:47;;;;;;;156.43;14.90;;;;;;;7.90;100.00;100367.02;634401;223;32723;-74
2020/12/16 04:00:18;;;;;;;109.57;14.23;;;;;;;8.07;100.00;100376.00;628674;221;32711;-73
2020/12/16 04:02:49;;;;;;;93.40;12.37;;;;;;;7.77;100.00;100370.25;624909;229;23719;-74
2020/12/16 04:05:20;;;;;;;33.57;9.50;;;;;;;7.74;100.00;100372.14;626069;229;24888;-74
2020/12/16 04:07:54;;;;;;;66.25;12.58;;;;;;;7.88;100.00;100372.77;633083;224;32617;-74
2020/12/16 04:10:28;;;;;;;64.70;11.13;;;;;;;7.59;100.00;100375.92;621237;226;23731;-74
2020/12/16 04:12:58;;;;;;;80.03;11.77;;;;;;;7.42;100.00;100379.03;624398;229;25062;-73
2020/12/16 04:15:33;;;;;;;47.90;12.23;;;;;;;7.61;100.00;100386.19;620509;229;36801;-74
2020/12/16 04:18:04;;;;;;;113.90;15.05;;;;;;;8.22;100.00;100379.93;634576;223;32687;-73
2020/12/16 04:20:33;;;;;;;26.77;9.87;;;;;;;7.89;100.00;100391.27;639191;220;23705;-74
2020/12/16 04:23:02;;;;;;;40.63;12.50;;;;;;;8.31;100.00;100394.26;633098;224;32888;-74
2020/12/16 04:25:36;;;;;;;62.83;12.47;;;;;;;8.02;100.00;100397.08;639459;224;23709;-73
2020/12/16 04:28:08;;;;;;;55.97;13.23;;;;;;;7.97;100.00;100401.34;640956;224;23875;-74
2020/12/16 04:30:43;;;;;;;32.70;10.47;;;;;;;8.00;100.00;100405.45;639832;220;28010;-74
2020/12/16 04:33:14;;;;;;;64.60;11.63;;;;;;;7.99;100.00;100411.58;639318;223;24866;-74
2020/12/16 04:35:44;;;;;;;37.63;10.27;;;;;;;8.00;100.00;100410.63;639300;224;24808;-74
2020/12/16 04:38:18;;;;;;;77.70;12.43;;;;;;;7.84;100.00;100410.22;626182;229;27032;-75
2020/12/16 04:40:50;;;;;;;58.20;10.50;;;;;;;7.86;100.00;100410.44;640713;221;24811;-74
2020/12/16 04:43:22;;;;;;;70.33;11.40;;;;;;;7.60;100.00;100420.30;634295;224;24787;-74
2020/12/16 04:45:53;;;;;;;44.63;9.70;;;;;;;7.70;100.00;100417.31;640911;223;24860;-74
2020/12/16 04:48:24;;;;;;;65.12;12.65;;;;;;;7.98;100.00;100412.52;633994;224;32753;-74
2020/12/16 04:50:56;;;;;;;39.10;10.67;;;;;;;7.70;100.00;100416.02;625642;227;23684;-74
2020/12/16 04:53:25;;;;;;;53.53;10.17;;;;;;;7.72;100.00;100416.72;625176;229;25190;-74
2020/12/16 04:55:54;;;;;;;57.65;12.98;;;;;;;7.91;100.00;100408.80;621195;229;43688;-74
2020/12/16 04:58:30;;;;;;;37.90;11.33;;;;;;;7.71;100.00;100420.25;641197;223;23847;-73
2020/12/16 05:01:01;;;;;;;73.85;15.15;;;;;;;7.95;100.00;100415.37;633271;220;32800;-74
2020/12/16 05:03:35;;;;;;;35.90;10.80;;;;;;;7.67;100.00;100425.33;641385;223;23687;-74
2020/12/16 05:06:05;;;;;;;117.10;13.50;;;;;;;7.61;100.00;100422.42;639828;224;24837;-74
2020/12/16 05:08:35;;;;;;;42.00;10.73;;;;;;;7.43;100.00;100420.31;624064;229;25136;-74
2020/12/16 05:11:05;;;;;;;46.23;14.75;;;;;;;7.74;100.00;100422.63;610844;228;33076;-74
2020/12/16 05:13:36;;;;;;;33.30;11.20;;;;;;;7.55;100.00;100425.00;626229;229;23732;-74
2020/12/16 05:16:06;;;;;;;24.73;9.70;;;;;;;7.59;100.00;100427.69;625916;228;24856;-74
2020/12/16 05:18:36;;;;;;;49.60;11.90;;;;;;;7.69;100.00;100424.73;635521;225;24727;-75
2020/12/16 05:21:07;;;;;;;33.97;11.10;;;;;;;7.69;100.00;100423.91;626165;226;24874;-74
2020/12/16 05:23:39;;;;;;;32.83;12.20;;;;;;;7.57;100.00;100429.58;620761;229;24884;-74
2020/12/16 05:26:10;;;;;;;45.67;12.57;;;;;;;7.65;100.00;100430.28;625670;229;24815;-74
2020/12/16 05:28:40;;;;;;;38.73;12.03;;;;;;;7.64;100.00;100430.76;624375;229;24858;-72
2020/12/16 05:31:11;;;;;;;32.33;12.23;;;;;;;7.62;100.00;100433.13;627077;225;26031;-74
2020/12/16 05:33:44;;;;;;;61.00;12.33;;;;;;;7.69;100.00;100430.38;637176;224;23857;-74
2020/12/16 05:38:57;;;;;;;43.60;12.63;;;;;;;7.62;100.00;100434.41;649684;208;25396;-73
2020/12/16 05:41:28;;;;;;;44.27;12.47;;;;;;;7.63;100.00;100430.41;635480;220;24863;-73
2020/12/16 05:44:18;;;;;;;28.73;11.10;;;;;;;7.68;100.00;100433.45;648790;220;24811;-73
2020/12/16 05:46:49;;;;;;;32.10;11.23;;;;;;;7.70;100.00;100429.44;646057;220;24910;-72
2020/12/16 05:49:24;;;;;;;42.93;11.57;;;;;;;7.77;100.00;100424.61;633203;225;24831;-73
2020/12/16 05:51:57;;;;;;;33.93;11.57;;;;;;;7.73;100.00;100427.42;626869;226;24869;-73
2020/12/16 05:54:29;;;;;;;32.10;11.33;;;;;;;7.70;100.00;100427.67;629989;225;24842;-73
2020/12/16 05:57:12;;;;;;;32.27;11.07;;;;;;;7.85;100.00;100424.34;650097;220;24859;-72
2020/12/16 05:59:41;;;;;;;31.53;10.50;;;;;;;7.84;100.00;100416.69;641980;221;24859;-72
2020/12/16 06:02:10;;;;;;;38.17;11.33;;;;;;;7.69;100.00;100422.14;636266;225;24839;-72
2020/12/16 06:04:39;;;;;;;36.03;11.93;;;;;;;7.74;100.00;100432.12;629499;226;24854;-72
2020/12/16 06:07:12;;;;;;;49.40;14.65;;;;;;;8.29;100.00;100429.81;642500;221;33208;-73
2020/12/16 06:09:47;;;;;;;45.80;14.58;;;;;;;8.49;100.00;100430.00;636670;220;32908;-75
2020/12/16 06:12:18;;;;;;;33.53;12.00;;;;;;;8.15;100.00;100424.93;647507;220;23673;-73
2020/12/16 06:14:49;;;;;;;38.10;12.53;;;;;;;7.92;100.00;100433.75;635063;225;24854;-74
2020/12/16 06:17:19;;;;;;;40.57;12.30;;;;;;;7.93;100.00;100430.21;630686;225;24889;-74
2020/12/16 06:19:49;;;;;;;30.57;12.77;;;;;;;7.88;100.00;100440.09;627965;224;24852;-74
2020/12/16 06:22:23;;;;;;;41.00;13.93;;;;;;;7.86;100.00;100445.39;631686;225;24836;-73
2020/12/16 06:24:54;;;;;;;35.27;13.33;;;;;;;7.80;100.00;100441.19;629147;225;24879;-74
2020/12/16 06:27:24;;;;;;;70.93;15.30;;;;;;;7.93;100.00;100440.56;633048;225;24872;-74
2020/12/16 06:29:55;;;;;;;62.40;13.50;;;;;;;7.90;100.00;100442.94;633895;226;24866;-74
2020/12/16 06:35:08;;;;;;;69.17;12.33;;;;;;;7.87;100.00;100446.22;655210;217;28626;-74
2020/12/16 06:37:42;;;;;;;54.33;13.10;;;;;;;7.79;100.00;100447.31;639672;221;25124;-74
2020/12/16 06:40:12;;;;;;;54.00;14.37;;;;;;;7.91;100.00;100453.64;646590;220;24822;-74
2020/12/16 06:42:45;;;;;;;38.60;13.40;;;;;;;7.86;100.00;100458.81;630737;225;24921;-73
2020/12/16 06:45:14;;;;;;;35.07;12.13;;;;;;;7.92;100.00;100472.59;649826;221;24791;-73
2020/12/16 06:47:44;;;;;;;63.70;15.13;;;;;;;8.22;100.00;100480.50;631006;225;24916;-74
2020/12/16 06:50:21;;;;;;;84.72;18.90;;;;;;;8.58;100.00;100474.59;634216;220;32774;-72
2020/12/16 06:52:53;;;;;;;85.73;16.07;;;;;;;8.18;100.00;100476.52;646393;222;23712;-73
2020/12/16 06:55:24;;;;;;;121.67;16.43;;;;;;;8.18;100.00;100478.28;645173;221;24842;-73
2020/12/16 07:00:34;;;;;;;153.03;17.13;;;;;;;8.07;100.00;100480.44;651970;208;25763;-74
2020/12/16 07:03:16;;;;;;;73.37;17.20;;;;;;;8.07;100.00;100481.73;632465;225;24855;-74
2020/12/16 07:05:48;;;;;;;49.37;15.80;;;;;;;7.96;100.00;100472.22;630610;226;24852;-73
2020/12/16 07:08:31;;;;;;;35.73;13.27;;;;;;;7.99;100.00;100485.39;641632;221;24790;-73
2020/12/16 07:11:03;;;;;;;41.20;15.03;;;;;;;8.04;100.00;100485.39;643107;220;24805;-73
2020/12/16 07:13:38;;;;;;;39.50;12.80;;;;;;;8.10;100.00;100488.42;629788;226;24853;-73
2020/12/16 07:16:09;;;;;;;48.47;14.93;;;;;;;8.23;100.00;100487.33;643381;221;24801;-74
2020/12/16 07:18:49;;;;;;;48.30;17.20;;;;;;;8.67;100.00;100488.10;631281;225;32889;-74
2020/12/16 07:21:27;;;;;;;45.23;17.00;;;;;;;8.88;100.00;100488.94;644027;221;43461;-74
2020/12/16 07:24:02;;;;;;;34.20;14.07;;;;;;;9.02;100.00;100492.98;634991;221;32748;-74
2020/12/16 07:26:34;;;;;;;24.20;11.80;;;;;;;8.46;100.00;100495.05;637254;222;23644;-74
2020/12/16 07:29:19;;;;;;;40.10;15.15;;;;;;;8.96;100.00;100493.47;637403;221;32941;-73
2020/12/16 07:31:58;;;;;;;44.53;13.63;;;;;;;8.36;100.00;100504.52;642810;221;22702;-73
2020/12/16 07:34:28;;;;;;;97.70;13.93;;;;;;;8.29;100.00;100506.72;644224;221;25096;-74
2020/12/16 07:37:00;;;;;;;62.60;15.45;;;;;;;8.74;100.00;100507.41;621747;225;32921;-73
2020/12/16 07:39:32;;;;;;;69.00;14.47;;;;;;;8.27;100.00;100513.33;643286;221;23675;-73
2020/12/16 07:42:02;;;;;;;37.90;14.90;;;;;;;8.76;100.00;100511.17;636683;221;32802;-73
2020/12/16 07:44:32;;;;;;;33.07;12.97;;;;;;;8.43;100.00;100517.31;640478;222;23672;-74
2020/12/16 07:47:05;;;;;;;38.03;12.97;;;;;;;8.36;100.00;100513.58;639375;221;24784;-74
2020/12/16 07:49:41;;;;;;;34.50;12.23;;;;;;;8.40;100.00;100514.97;642225;221;24786;-74
2020/12/16 07:52:12;;;;;;;30.40;12.03;;;;;;;8.40;100.00;100511.91;637992;222;25928;-73
2020/12/16 07:54:41;;;;;;;34.20;12.53;;;;;;;8.33;100.00;100510.27;642306;222;24968;-74
2020/12/16 07:57:12;;;;;;;43.92;13.88;;;;;;;8.88;100.00;100496.72;635026;220;32796;-74
2020/12/16 07:59:42;;;;;;;69.07;15.03;;;;;;;8.42;100.00;100494.45;645664;221;23668;-73
2020/12/16 08:02:15;;;;;;;30.27;11.90;;;;;;;8.26;100.00;100507.80;642969;221;24815;-73
2020/12/16 08:04:45;;;;;;;37.93;13.37;;;;;;;8.44;100.00;100499.52;634945;225;26960;-74
2020/12/16 08:07:17;;;;;;;35.47;12.00;;;;;;;8.53;100.00;100500.07;629757;226;24965;-74
2020/12/16 08:09:55;;;;;;;34.70;13.40;;;;;;;8.58;100.00;100501.33;632340;225;24854;-74
2020/12/16 08:12:26;;;;;;;38.73;12.40;;;;;;;8.59;100.00;100497.82;628180;226;24816;-74
2020/12/16 08:15:08;;;;;;;72.65;18.92;;;;;;;9.15;100.00;100494.89;627260;225;32938;-73
2020/12/16 08:17:40;;;;;;;37.60;13.60;;;;;;;8.82;100.00;100497.68;629571;225;23674;-73
2020/12/16 08:20:12;;;;;;;54.75;18.07;;;;;;;9.21;100.00;100493.06;623909;225;32928;-74
2020/12/16 08:22:42;;;;;;;41.43;14.90;;;;;;;8.69;100.00;100504.34;629748;225;23746;-73
2020/12/16 08:25:11;;;;;;;64.37;16.80;;;;;;;8.56;100.00;100506.30;628231;225;28051;-74
2020/12/16 08:27:44;;;;;;;59.57;17.63;;;;;;;8.49;100.00;100511.65;642406;221;24832;-73
2020/12/16 08:30:14;;;;;;;55.60;16.23;;;;;;;8.30;100.00;100510.52;622566;225;24945;-74
2020/12/16 08:32:51;;;;;;;68.92;20.12;;;;;;;8.81;100.00;100512.89;636138;221;32819;-73
2020/12/16 08:35:22;;;;;;;64.17;21.00;;;;;;;8.98;100.00;100507.13;624095;225;33306;-71
2020/12/16 08:37:55;;;;;;;84.47;23.45;;;;;;;9.16;100.00;100510.80;623370;222;33211;-73
2020/12/16 08:40:26;;;;;;;54.77;17.10;;;;;;;8.84;100.00;100525.61;641654;221;23766;-71
2020/12/16 08:42:58;;;;;;;50.20;16.70;;;;;;;8.77;100.00;100518.82;629664;225;24916;-73
2020/12/16 08:45:28;;;;;;;62.78;20.43;;;;;;;9.23;100.00;100504.13;634156;223;32749;-73
2020/12/16 08:48:03;;;;;;;60.03;21.37;;;;;;;9.28;100.00;100489.94;634193;223;32774;-72
2020/12/16 08:50:33;;;;;;;45.47;16.20;;;;;;;8.76;100.00;100501.62;628421;225;23767;-74
2020/12/16 08:53:04;;;;;;;47.67;17.60;;;;;;;9.38;100.00;100504.61;621642;225;33581;-73
2020/12/16 08:55:37;;;;;;;53.50;18.40;;;;;;;9.61;100.00;100505.73;622070;225;32939;-74
2020/12/16 08:58:08;;;;;;;53.27;16.60;;;;;;;8.94;100.00;100513.53;639117;224;23665;-73
2020/12/16 09:03:27;;;;;;;67.80;20.48;;;;;;;9.42;100.00;100515.55;642148;220;33382;-75
2020/12/16 09:05:58;;;;;;;65.05;20.92;;;;;;;9.56;100.00;100513.89;629054;224;32000;-74
2020/12/16 09:08:27;;;;;;;50.67;18.20;;;;;;;9.00;100.00;100519.97;647437;220;23557;-74
2020/12/16 09:10:59;;;;;;;55.75;19.05;;;;;;;9.48;100.00;100518.46;634668;220;32178;-73
2020/12/16 09:13:31;;;;;;;62.20;20.40;;;;;;;9.63;100.00;100518.11;617117;229;33151;-72
2020/12/16 09:16:01;;;;;;;49.83;17.43;;;;;;;9.17;100.00;100525.42;635296;224;23732;-71
2020/12/16 09:18:34;;;;;;;65.70;18.80;;;;;;;9.07;100.00;100526.31;637707;225;24842;-73
2020/12/16 09:21:05;;;;;;;48.40;17.60;;;;;;;9.01;100.00;100522.91;639679;221;24813;-73
2020/12/16 09:23:36;;;;;;;48.83;16.53;;;;;;;8.95;100.00;100525.55;622265;229;24878;-73
2020/12/16 09:26:07;;;;;;;58.73;18.07;;;;;;;8.92;100.00;100531.82;621706;229;24680;-74
2020/12/16 09:28:37;;;;;;;68.17;17.40;;;;;;;9.13;100.00;100534.39;640908;221;24789;-72
2020/12/16 09:31:17;;;;;;;73.83;21.65;;;;;;;9.78;100.00;100531.07;617052;226;33193;-75
2020/12/16 09:33:58;;;;;;;116.53;22.07;;;;;;;9.73;100.00;100525.45;640273;221;23713;-75
2020/12/16 09:36:33;;;;;;;103.32;24.60;;;;;;;10.26;100.00;100525.17;616201;229;44124;-75
2020/12/16 09:39:05;;;;;;;164.67;24.30;;;;;;;10.12;100.00;100526.34;640169;221;24916;-74
2020/12/16 09:41:45;;;;;;;102.20;23.47;;;;;;;10.17;100.00;100520.77;621676;227;24935;-73
2020/12/16 09:44:27;;;;;;;73.53;18.90;;;;;;;9.95;100.00;100517.91;622316;229;24935;-73
2020/12/16 09:47:11;;;;;;;95.13;21.17;;;;;;;10.18;100.00;100518.03;636872;222;24834;-76
2020/12/16 09:49:41;;;;;;;64.03;18.03;;;;;;;10.12;100.00;100516.77;633839;225;24676;-73
2020/12/16 09:52:21;;;;;;;50.50;20.40;;;;;;;10.22;100.00;100518.61;622035;229;24927;-75
2020/12/16 09:54:51;;;;;;;46.80;21.90;;;;;;;10.41;100.00;100506.91;633880;221;33109;-75
2020/12/16 09:57:24;;;;;;;45.23;20.65;;;;;;;10.35;100.00;100508.77;617059;229;33373;-72
2020/12/16 10:01:09;;;;;;;39.45;20.00;;;;;;;10.34;100.00;100503.23;634087;216;32787;-74
2020/12/16 10:03:40;;;;;;;32.03;16.03;;;;;;;10.03;100.00;100507.20;615333;229;22762;-71
2020/12/16 10:06:14;;;;;;;28.60;15.80;;;;;;;10.01;100.00;100504.41;614786;229;24902;-72
2020/12/16 10:08:46;;;;;;;29.47;15.43;;;;;;;10.10;100.00;100512.20;621469;229;27051;-73
2020/12/16 10:11:17;;;;;;;26.13;14.97;;;;;;;10.12;100.00;100506.86;613034;229;24869;-72
2020/12/16 10:16:32;;;;;;;24.70;15.40;;;;;;;9.91;100.00;100504.85;646960;217;25390;-73
2020/12/16 10:19:01;;;;;;;24.17;15.63;;;;;;;10.04;100.00;100506.73;636875;224;24949;-73
2020/12/16 10:21:31;;;;;;;32.03;19.60;;;;;;;10.43;100.00;100504.20;635992;220;32842;-73
2020/12/16 10:24:02;;;;;;;33.02;20.50;;;;;;;10.56;100.00;100503.45;631073;225;43537;-73
2020/12/16 10:26:33;;;;;;;27.43;15.87;;;;;;;10.00;100.00;100500.98;643318;220;23667;-72
2020/12/16 10:29:07;;;;;;;27.23;16.47;;;;;;;9.66;100.00;100506.97;636835;225;25822;-72
2020/12/16 10:31:37;;;;;;;24.23;16.70;;;;;;;10.06;100.00;100503.03;634683;220;33170;-73
2020/12/16 10:34:09;;;;;;;26.47;16.40;;;;;;;9.92;100.00;100500.00;636315;225;24880;-73
2020/12/16 10:36:41;;;;;;;29.70;15.00;;;;;;;9.78;100.00;100490.33;643458;220;29083;-72
2020/12/16 10:39:11;;;;;;;31.00;18.85;;;;;;;10.38;100.00;100496.79;630308;225;32706;-74
2020/12/16 10:41:40;;;;;;;27.50;17.83;;;;;;;9.94;100.00;100504.10;637996;221;23686;-72
2020/12/16 10:44:11;;;;;;;28.87;19.10;;;;;;;10.31;100.00;100498.31;634816;221;43520;-74
2020/12/16 10:46:44;;;;;;;25.70;17.00;;;;;;;9.95;100.00;100495.35;635989;225;24867;-73
2020/12/16 10:49:15;;;;;;;35.77;20.40;;;;;;;10.06;100.00;100498.31;639288;221;25246;-71
2020/12/16 10:51:47;;;;;;;31.50;21.25;;;;;;;10.56;100.00;100486.55;629961;225;32995;-73
2020/12/16 10:54:18;;;;;;;32.53;21.17;;;;;;;10.66;100.00;100480.83;635493;220;32927;-74
2020/12/16 10:56:54;;;;;;;31.40;18.80;;;;;;;10.48;100.00;100487.70;635514;224;23662;-73
2020/12/16 10:59:26;;;;;;;33.10;18.67;;;;;;;10.14;100.00;100495.06;646734;219;30053;-74
2020/12/16 11:01:55;;;;;;;28.23;16.20;;;;;;;10.24;100.00;100489.39;634678;224;24849;-72
2020/12/16 11:04:27;;;;;;;30.47;17.57;;;;;;;10.21;100.00;100492.24;636266;225;24836;-72
2020/12/16 11:06:59;;;;;;;69.83;17.97;;;;;;;10.34;100.00;100488.93;640582;221;25075;-74
2020/12/16 11:09:30;;;;;;;164.20;21.10;;;;;;;9.90;100.00;100484.55;635874;225;24790;-74
2020/12/16 11:12:00;;;;;;;32.83;17.17;;;;;;;10.07;100.00;100479.16;641778;221;24276;-73
2020/12/16 11:14:31;;;;;;;38.77;20.57;;;;;;;10.58;100.00;100467.23;630499;224;32696;-72
2020/12/16 11:17:01;;;;;;;50.47;18.23;;;;;;;10.10;100.00;100465.89;639472;221;25622;-73
2020/12/16 11:19:31;;;;;;;107.80;18.90;;;;;;;10.38;100.00;100464.29;636110;225;24790;-73
2020/12/16 11:22:03;;;;;;;41.60;18.37;;;;;;;10.17;100.00;100467.48;640846;221;24804;-74
2020/12/16 11:24:32;;;;;;;138.80;19.33;;;;;;;10.36;100.00;100471.41;635987;223;24802;-73
2020/12/16 11:27:02;;;;;;;50.43;19.15;;;;;;;10.58;100.00;100459.43;636790;219;32944;-71
2020/12/16 11:29:31;;;;;;;67.43;16.87;;;;;;;10.07;100.00;100457.90;636627;224;23720;-74
2020/12/16 11:32:01;;;;;;;22.23;16.20;;;;;;;9.94;100.00;100459.94;641322;217;24813;-73
2020/12/16 11:34:32;;;;;;;44.93;16.13;;;;;;;10.06;100.00;100458.03;636676;225;24948;-75
2020/12/16 11:37:02;;;;;;;74.70;18.27;;;;;;;9.96;100.00;100443.73;636637;225;28539;-72
2020/12/16 11:39:33;;;;;;;126.75;21.42;;;;;;;10.03;100.00;100444.84;634027;220;32668;-74
2020/12/16 11:42:05;;;;;;;121.45;22.22;;;;;;;10.16;100.00;100447.66;630612;225;32739;-73
2020/12/16 11:44:34;;;;;;;127.43;18.73;;;;;;;9.76;100.00;100445.48;641596;220;23703;-72
2020/12/16 11:47:09;;;;;;;31.53;18.80;;;;;;;9.90;100.00;100448.66;646972;221;28004;-73
2020/12/16 11:49:42;;;;;;;23.40;17.03;;;;;;;9.88;100.00;100453.99;635785;225;24838;-71
2020/12/16 11:52:12;;;;;;;54.53;17.83;;;;;;;9.98;100.00;100449.61;636192;225;24949;-72
2020/12/16 11:54:41;;;;;;;64.07;21.50;;;;;;;10.24;100.00;100449.92;627941;225;32955;-72